createdAt,value
2022-10-22T00:01:00.067Z,68.45
2022-10-22T00:03:27.942Z,68.27
2022-10-22T00:05:55.722Z,67.54
2022-10-22T00:08:24.918Z,67.97
2022-10-22T00:10:52.806Z,67.81
2022-10-22T00:13:21.437Z,67.76
2022-10-22T00:15:49.847Z,67.92
2022-10-22T00:18:17.623Z,68.39
2022-10-22T00:20:45.427Z,67.96
2022-10-22T00:23:13.207Z,68.27
2022-10-22T00:25:42.756Z,68.04
2022-10-22T00:28:11.482Z,67.92
2022-10-22T00:30:39.247Z,67.63
2022-10-22T00:33:07.090Z,68.24
2022-10-22T00:35:34.853Z,68.23
2022-10-22T00:38:02.639Z,68.48
2022-10-22T00:40:30.766Z,68.18
2022-10-22T00:42:59.940Z,68.53
2022-10-22T00:45:28.662Z,68.82
2022-10-22T00:48:00.441Z,68.47
2022-10-22T00:50:34.024Z,69.09
2022-10-22T00:53:03.489Z,69.67
2022-10-22T00:55:33.664Z,69.99
2022-10-22T00:58:04.834Z,69.19
2022-10-22T01:00:33.056Z,68.97
2022-10-22T01:03:01.291Z,68.86
2022-10-22T01:05:30.698Z,68.29
2022-10-22T01:07:58.739Z,68.67
2022-10-22T01:10:39.363Z,68.27
2022-10-22T01:13:18.778Z,68.38
2022-10-22T01:15:54.076Z,68.55
2022-10-22T01:18:29.413Z,67.86
2022-10-22T01:21:09.573Z,68.26
2022-10-22T01:24:00.614Z,67.90
2022-10-22T01:26:42.032Z,68.17
2022-10-22T01:29:14.367Z,67.87
2022-10-22T01:31:46.595Z,68.13
2022-10-22T01:34:17.512Z,68.54
2022-10-22T01:36:46.713Z,68.60
2022-10-22T01:39:16.397Z,68.57
2022-10-22T01:41:45.302Z,68.89
2022-10-22T01:44:26.362Z,68.66
2022-10-22T01:47:04.214Z,68.27
2022-10-22T01:49:43.712Z,68.39
2022-10-22T01:52:23.547Z,68.40
2022-10-22T01:54:56.579Z,68.99
2022-10-22T01:57:34.030Z,68.97
2022-10-22T02:00:08.870Z,68.20
2022-10-22T02:02:44.946Z,68.77
2022-10-22T02:05:17.718Z,68.46
2022-10-22T02:07:48.917Z,68.38
2022-10-22T02:10:18.912Z,68.49
2022-10-22T02:12:51.393Z,68.23
2022-10-22T02:15:22.863Z,69.00
2022-10-22T02:17:52.213Z,68.88
2022-10-22T02:20:24.182Z,68.92
2022-10-22T02:22:52.109Z,68.98
2022-10-22T02:25:22.569Z,68.84
2022-10-22T02:28:02.137Z,69.28
2022-10-22T02:30:34.756Z,68.63
2022-10-22T02:33:07.085Z,68.85
2022-10-22T02:35:36.374Z,69.29
2022-10-22T02:38:04.749Z,69.17
2022-10-22T02:40:33.350Z,69.01
2022-10-22T02:43:01.305Z,69.49
2022-10-22T02:45:29.799Z,69.59
2022-10-22T02:47:59.414Z,69.14
2022-10-22T02:50:27.319Z,69.27
2022-10-22T02:52:55.097Z,69.21
2022-10-22T02:55:23.103Z,69.24
2022-10-22T02:57:50.863Z,69.08
2022-10-22T03:00:19.183Z,69.15
2022-10-22T03:02:47.020Z,69.64
2022-10-22T03:05:16.521Z,69.28
2022-10-22T03:07:44.276Z,69.48
2022-10-22T03:10:12.048Z,69.32
2022-10-22T03:12:39.800Z,69.48
2022-10-22T03:15:08.223Z,69.43
2022-10-22T03:17:36.958Z,69.65
2022-10-22T03:20:05.144Z,69.98
2022-10-22T03:22:36.297Z,70.43
2022-10-22T03:25:08.794Z,70.58
2022-10-22T03:27:38.683Z,70.79
2022-10-22T03:30:08.428Z,70.18
2022-10-22T03:32:36.305Z,70.30
2022-10-22T03:35:05.499Z,70.47
2022-10-22T03:37:35.898Z,70.85
2022-10-22T03:40:05.835Z,71.44
2022-10-22T03:42:33.652Z,72.00
2022-10-22T03:45:02.491Z,72.29
2022-10-22T03:47:30.238Z,73.06
2022-10-22T03:49:58.057Z,72.95
2022-10-22T03:52:25.883Z,73.05
2022-10-22T03:54:55.019Z,73.28
2022-10-22T03:57:22.811Z,72.84
2022-10-22T03:59:51.435Z,72.76
2022-10-22T04:02:19.248Z,73.12
2022-10-22T04:04:46.992Z,73.30
2022-10-22T04:07:14.802Z,72.84
2022-10-22T04:09:42.619Z,73.61
2022-10-22T04:12:11.867Z,73.18
2022-10-22T04:14:39.651Z,73.60
2022-10-22T04:17:07.548Z,73.72
2022-10-22T04:19:35.676Z,73.56
2022-10-22T04:22:03.499Z,73.06
2022-10-22T04:24:32.296Z,72.62
2022-10-22T04:27:00.522Z,72.56
2022-10-22T04:29:29.671Z,72.21
2022-10-22T04:31:57.464Z,72.07
2022-10-22T04:34:28.830Z,71.95
2022-10-22T04:36:56.788Z,71.78
2022-10-22T04:39:24.577Z,71.70
2022-10-22T04:41:52.399Z,71.39
2022-10-22T04:44:20.215Z,71.63
2022-10-22T04:46:50.343Z,71.65
2022-10-22T04:49:18.527Z,71.51
2022-10-22T04:51:46.356Z,71.31
2022-10-22T04:54:15.071Z,71.12
2022-10-22T04:56:43.215Z,71.07
2022-10-22T04:59:14.677Z,71.24
2022-10-22T05:01:43.888Z,71.03
2022-10-22T05:04:16.234Z,71.53
2022-10-22T05:06:45.062Z,70.95
2022-10-22T05:09:15.091Z,71.11
2022-10-22T05:11:48.227Z,71.12
2022-10-22T05:14:17.517Z,71.44
2022-10-22T05:16:48.171Z,71.82
2022-10-22T05:19:21.163Z,71.31
2022-10-22T05:21:48.950Z,71.83
2022-10-22T05:24:17.003Z,71.47
2022-10-22T05:26:44.854Z,72.27
2022-10-22T05:29:12.611Z,72.61
2022-10-22T05:31:41.034Z,72.65
2022-10-22T05:34:08.826Z,72.69
2022-10-22T05:36:38.237Z,72.31
2022-10-22T05:39:06.675Z,71.97
2022-10-22T05:41:36.592Z,72.05
2022-10-22T05:44:05.093Z,71.71
2022-10-22T05:46:36.316Z,71.68
2022-10-22T05:49:06.338Z,71.24
2022-10-22T05:51:36.513Z,71.16
2022-10-22T05:54:08.384Z,71.08
2022-10-22T05:56:36.700Z,70.63
2022-10-22T05:59:04.919Z,70.39
2022-10-22T06:01:35.212Z,70.64
2022-10-22T06:04:06.243Z,70.58
2022-10-22T06:06:36.326Z,70.62
2022-10-22T06:09:11.209Z,70.38
2022-10-22T06:11:39.097Z,70.28
2022-10-22T06:14:07.942Z,70.31
2022-10-22T06:16:35.829Z,70.25
2022-10-22T06:19:04.295Z,71.26
2022-10-22T06:21:32.611Z,70.59
2022-10-22T06:24:01.715Z,70.88
2022-10-22T06:26:31.283Z,70.27
2022-10-22T06:28:59.536Z,69.98
2022-10-22T06:31:28.842Z,70.13
2022-10-22T06:33:57.806Z,70.50
2022-10-22T06:36:26.632Z,70.26
2022-10-22T06:38:55.886Z,70.92
2022-10-22T06:41:28.550Z,71.39
2022-10-22T06:43:59.924Z,71.96
2022-10-22T06:46:27.885Z,71.73
2022-10-22T06:48:57.134Z,72.02
2022-10-22T06:51:26.283Z,71.92
2022-10-22T06:53:54.745Z,71.91
2022-10-22T06:56:24.820Z,71.60
2022-10-22T06:58:54.419Z,70.91
2022-10-22T07:01:28.179Z,70.77
2022-10-22T07:03:56.592Z,70.96
2022-10-22T07:06:26.077Z,69.64
2022-10-22T07:08:54.841Z,70.26
2022-10-22T07:11:25.617Z,70.13
2022-10-22T07:13:55.441Z,70.03
2022-10-22T07:16:29.569Z,70.03
2022-10-22T07:19:00.109Z,70.37
2022-10-22T07:21:27.939Z,69.43
2022-10-22T07:23:56.504Z,69.42
2022-10-22T07:26:25.353Z,68.99
2022-10-22T07:28:53.211Z,68.36
2022-10-22T07:31:21.172Z,68.21
2022-10-22T07:33:50.304Z,67.87
2022-10-22T07:36:18.587Z,67.06
2022-10-22T07:38:46.930Z,66.68
2022-10-22T07:41:14.979Z,67.30
2022-10-22T07:43:43.281Z,67.15
2022-10-22T07:46:11.545Z,67.62
2022-10-22T07:48:39.556Z,68.69
2022-10-22T07:51:09.177Z,68.23
2022-10-22T07:53:37.096Z,68.88
2022-10-22T07:56:06.208Z,68.64
2022-10-22T07:58:34.679Z,68.29
2022-10-22T08:01:05.666Z,68.42
2022-10-22T08:03:34.466Z,68.85
2022-10-22T08:06:02.896Z,68.30
2022-10-22T08:08:32.341Z,68.02
2022-10-22T08:11:01.665Z,67.97
2022-10-22T08:13:31.579Z,67.70
2022-10-22T08:16:00.355Z,67.45
2022-10-22T08:18:28.709Z,66.86
2022-10-22T08:20:56.702Z,67.09
2022-10-22T08:23:26.203Z,66.54
2022-10-22T08:25:58.441Z,66.67
2022-10-22T08:28:28.464Z,65.83
2022-10-22T08:30:56.569Z,66.19
2022-10-22T08:33:24.358Z,65.61
2022-10-22T08:35:52.942Z,65.31
2022-10-22T08:38:21.367Z,66.20
2022-10-22T08:40:52.783Z,65.74
2022-10-22T08:44:08.083Z,65.35
2022-10-22T08:46:55.124Z,65.15
2022-10-22T08:49:25.677Z,65.04
2022-10-22T08:51:54.052Z,64.54
2022-10-22T08:54:33.077Z,64.15
2022-10-22T08:57:17.828Z,63.83
2022-10-22T08:59:48.914Z,63.11
2022-10-22T09:02:36.309Z,63.38
2022-10-22T09:05:17.055Z,63.13
2022-10-22T09:07:50.115Z,62.90
2022-10-22T09:10:20.156Z,62.83
2022-10-22T09:12:49.080Z,62.70
2022-10-22T09:15:21.879Z,62.39
2022-10-22T09:18:00.573Z,61.91
2022-10-22T09:20:35.928Z,61.68
2022-10-22T09:23:18.565Z,61.10
2022-10-22T09:25:46.862Z,60.72
2022-10-22T09:28:14.649Z,60.61
2022-10-22T09:30:44.052Z,60.23
2022-10-22T09:33:14.933Z,60.29
2022-10-22T09:35:47.580Z,60.32
2022-10-22T09:38:17.896Z,60.22
2022-10-22T09:40:48.291Z,60.46
2022-10-22T09:43:16.496Z,60.70
2022-10-22T09:45:47.196Z,61.24
2022-10-22T09:48:21.513Z,61.18
2022-10-22T09:50:51.116Z,61.22
2022-10-22T09:53:22.713Z,61.10
2022-10-22T09:55:53.844Z,61.07
2022-10-22T09:58:22.019Z,61.18
2022-10-22T10:00:54.765Z,61.00
2022-10-22T10:03:24.499Z,61.16
2022-10-22T10:05:54.395Z,60.99
2022-10-22T10:08:23.212Z,61.40
2022-10-22T10:10:53.786Z,60.80
2022-10-22T10:13:49.649Z,60.78
2022-10-22T10:16:31.545Z,60.81
2022-10-22T10:19:18.479Z,60.96
2022-10-22T10:21:55.688Z,60.86
2022-10-22T10:24:30.879Z,60.84
2022-10-22T10:27:03.578Z,60.91
2022-10-22T10:29:47.417Z,61.14
2022-10-22T10:32:28.827Z,60.91
2022-10-22T10:35:08.719Z,61.53
2022-10-22T10:37:43.777Z,61.84
2022-10-22T10:40:22.992Z,61.92
2022-10-22T10:43:01.233Z,62.16
2022-10-22T10:45:38.089Z,62.53
2022-10-22T10:48:19.818Z,62.63
2022-10-22T10:51:03.828Z,62.93
2022-10-22T10:53:48.643Z,62.80
2022-10-22T10:56:33.455Z,62.77
2022-10-22T10:59:14.905Z,62.67
2022-10-22T11:02:00.643Z,62.64
2022-10-22T11:04:51.625Z,62.85
2022-10-22T11:07:34.382Z,63.08
2022-10-22T11:10:10.814Z,63.34
2022-10-22T11:12:43.431Z,63.53
2022-10-22T11:15:23.800Z,63.51
2022-10-22T11:17:54.083Z,63.97
2022-10-22T11:20:28.591Z,64.31
2022-10-22T11:23:18.997Z,64.98
2022-10-22T11:25:50.312Z,64.98
2022-10-22T11:28:24.745Z,64.66
2022-10-22T11:30:59.275Z,65.38
2022-10-22T11:33:34.158Z,65.56
2022-10-22T11:36:05.835Z,65.13
2022-10-22T11:38:35.695Z,65.08
2022-10-22T11:41:08.362Z,65.01
2022-10-22T11:43:56.904Z,65.03
2022-10-22T11:46:34.950Z,65.53
2022-10-22T11:49:05.672Z,65.84
2022-10-22T11:51:36.967Z,65.79
2022-10-22T11:54:43.257Z,65.85
2022-10-22T11:57:21.468Z,66.07
2022-10-22T11:59:52.423Z,66.00
2022-10-22T12:02:32.896Z,66.03
2022-10-22T12:05:34.934Z,66.49
2022-10-22T12:08:17.008Z,66.65
2022-10-22T12:10:59.275Z,66.65
2022-10-22T12:13:29.239Z,67.30
2022-10-22T12:15:59.796Z,67.78
2022-10-22T12:18:33.319Z,68.36
2022-10-22T12:21:01.251Z,68.85
2022-10-22T12:23:35.115Z,69.01
2022-10-22T12:26:04.728Z,69.59
2022-10-22T12:28:40.802Z,70.42
2022-10-22T12:31:17.163Z,71.09
2022-10-22T12:33:45.216Z,72.20
2022-10-22T12:36:19.586Z,73.00
2022-10-22T12:38:49.271Z,73.31
2022-10-22T12:41:17.056Z,73.86
2022-10-22T12:43:45.444Z,74.00
2022-10-22T12:46:15.114Z,74.19
2022-10-22T12:48:45.555Z,74.30
2022-10-22T12:51:17.967Z,74.60
2022-10-22T12:53:50.264Z,75.25
2022-10-22T12:56:23.161Z,75.33
2022-10-22T12:58:56.255Z,75.17
2022-10-22T13:01:27.607Z,74.65
2022-10-22T13:04:06.916Z,75.00
2022-10-22T13:06:36.284Z,74.45
2022-10-22T13:09:13.324Z,73.64
2022-10-22T13:11:43.117Z,73.40
2022-10-22T13:14:22.312Z,72.56
2022-10-22T13:17:12.219Z,71.73
2022-10-22T13:19:43.860Z,71.45
2022-10-22T13:22:31.219Z,71.02
2022-10-22T13:25:04.689Z,70.81
2022-10-22T13:27:33.043Z,70.66
2022-10-22T13:30:04.031Z,71.46
2022-10-22T13:32:34.675Z,71.82
2022-10-22T13:35:04.318Z,71.92
2022-10-22T13:37:35.531Z,72.57
2022-10-22T13:40:11.966Z,72.64
2022-10-22T13:42:41.157Z,72.71
2022-10-22T13:45:09.842Z,72.68
2022-10-22T13:47:37.862Z,72.74
2022-10-22T13:50:14.617Z,72.55
2022-10-22T13:52:46.208Z,72.87
2022-10-22T13:55:18.119Z,73.69
2022-10-22T13:57:46.824Z,73.47
2022-10-22T14:00:16.961Z,73.66
2022-10-22T14:02:45.711Z,74.00
2022-10-22T14:05:14.114Z,74.16
2022-10-22T14:07:42.219Z,74.41
2022-10-22T14:10:20.189Z,73.98
2022-10-22T14:12:52.381Z,74.48
2022-10-22T14:15:23.870Z,75.53
2022-10-22T14:17:57.402Z,75.43
2022-10-22T14:20:27.562Z,76.05
2022-10-22T14:22:55.945Z,76.21
2022-10-22T14:25:26.771Z,75.90
2022-10-22T14:27:54.714Z,75.79
2022-10-22T14:30:24.145Z,76.50
2022-10-22T14:32:52.589Z,76.28
2022-10-22T14:35:22.721Z,76.95
2022-10-22T14:37:50.938Z,76.52
2022-10-22T14:40:21.154Z,76.88
2022-10-22T14:42:50.389Z,76.50
2022-10-22T14:45:21.932Z,76.91
2022-10-22T14:47:50.364Z,76.75
2022-10-22T14:50:19.417Z,76.93
2022-10-22T14:52:47.261Z,76.33
2022-10-22T14:55:16.829Z,76.39
2022-10-22T14:57:45.228Z,76.15
2022-10-22T15:00:17.635Z,75.82
2022-10-22T15:02:46.190Z,75.88
2022-10-22T15:05:14.217Z,76.09
2022-10-22T15:07:42.782Z,75.83
2022-10-22T15:10:11.136Z,76.28
2022-10-22T15:12:38.937Z,76.27
2022-10-22T15:15:08.216Z,76.30
2022-10-22T15:17:37.380Z,76.72
2022-10-22T15:20:06.213Z,76.52
2022-10-22T15:22:35.555Z,77.31
2022-10-22T15:25:06.122Z,76.65
2022-10-22T15:27:34.014Z,76.75
2022-10-22T15:32:32.248Z,76.98
2022-10-22T15:35:05.926Z,77.64
2022-10-22T15:37:33.737Z,77.29
2022-10-22T15:40:03.660Z,78.18
2022-10-22T15:42:31.556Z,77.76
2022-10-22T15:45:00.184Z,77.59
2022-10-22T15:47:29.500Z,78.53
2022-10-22T15:49:58.345Z,78.44
2022-10-22T15:52:27.604Z,78.75
2022-10-22T15:54:55.513Z,78.80
2022-10-22T15:57:23.345Z,78.96
2022-10-22T15:59:51.870Z,79.06
2022-10-22T16:02:19.792Z,79.25
2022-10-22T16:04:47.900Z,79.37
2022-10-22T16:07:15.693Z,79.19
2022-10-22T16:09:44.816Z,79.50
2022-10-22T16:12:15.266Z,80.10
2022-10-22T16:14:44.999Z,79.64
2022-10-22T16:17:13.078Z,79.65
2022-10-22T16:19:40.817Z,80.54
2022-10-22T16:22:11.516Z,80.46
2022-10-22T16:24:40.355Z,79.98
2022-10-22T16:27:09.911Z,80.68
2022-10-22T16:29:38.789Z,81.14
2022-10-22T16:32:07.495Z,80.03
2022-10-22T16:34:35.330Z,80.60
2022-10-22T16:37:03.090Z,80.94
2022-10-22T16:39:30.917Z,80.23
2022-10-22T16:41:59.693Z,81.04
2022-10-22T16:44:28.900Z,81.48
2022-10-22T16:46:56.692Z,81.59
2022-10-22T16:49:25.101Z,81.47
2022-10-22T16:51:52.881Z,81.48
2022-10-22T16:54:21.755Z,80.71
2022-10-22T16:56:49.765Z,81.15
2022-10-22T16:59:18.556Z,81.56
2022-10-22T17:01:47.737Z,80.88
2022-10-22T17:04:17.221Z,81.42
2022-10-22T17:06:45.673Z,80.86
2022-10-22T17:09:14.241Z,81.49
2022-10-22T17:11:42.573Z,82.02
2022-10-22T17:14:10.898Z,81.93
2022-10-22T17:16:38.673Z,82.67
2022-10-22T17:19:08.042Z,81.81
2022-10-22T17:21:35.919Z,82.26
2022-10-22T17:24:03.716Z,82.03
2022-10-22T17:26:33.189Z,82.78
2022-10-22T17:29:01.610Z,81.80
2022-10-22T17:31:32.529Z,82.53
2022-10-22T17:34:00.815Z,82.22
2022-10-22T17:36:33.436Z,81.92
2022-10-22T17:39:06.137Z,82.72
2022-10-22T17:41:36.118Z,82.54
2022-10-22T17:44:05.797Z,82.21
2022-10-22T17:46:33.915Z,82.58
2022-10-22T17:49:04.330Z,82.15
2022-10-22T17:51:33.851Z,81.81
2022-10-22T17:54:03.477Z,81.80
2022-10-22T17:56:33.912Z,81.69
2022-10-22T17:59:02.935Z,82.06
2022-10-22T18:01:32.636Z,82.02
2022-10-22T18:04:03.391Z,83.06
2022-10-22T18:06:33.077Z,82.02
2022-10-22T18:09:05.776Z,82.79
2022-10-22T18:11:34.304Z,83.07
2022-10-22T18:14:02.528Z,82.78
2022-10-22T18:16:30.423Z,82.68
2022-10-22T18:18:58.826Z,82.56
2022-10-22T18:21:29.355Z,83.66
2022-10-22T18:23:59.971Z,83.59
2022-10-22T18:26:28.946Z,84.07
2022-10-22T18:28:57.998Z,84.04
2022-10-22T18:31:27.696Z,84.18
2022-10-22T18:33:56.388Z,84.63
2022-10-22T18:36:26.426Z,85.07
2022-10-22T18:38:56.393Z,84.33
2022-10-22T18:41:26.526Z,84.64
2022-10-22T18:43:55.664Z,84.64
2022-10-22T18:46:24.001Z,83.68
2022-10-22T18:48:54.052Z,84.28
2022-10-22T18:51:22.518Z,83.82
2022-10-22T18:54:04.591Z,84.07
2022-10-22T18:56:34.782Z,83.86
2022-10-22T18:59:02.532Z,83.39
2022-10-22T19:01:30.822Z,83.84
2022-10-22T19:03:58.672Z,83.23
2022-10-22T19:06:30.507Z,83.76
2022-10-22T19:09:00.667Z,83.12
2022-10-22T19:11:28.764Z,83.46
2022-10-22T19:13:58.050Z,83.75
2022-10-22T19:16:26.839Z,83.65
2022-10-22T19:19:01.296Z,84.27
2022-10-22T19:21:29.281Z,84.36
2022-10-22T19:23:57.532Z,84.56
2022-10-22T19:26:26.527Z,84.19
2022-10-22T19:28:54.892Z,83.83
2022-10-22T19:31:25.599Z,84.00
2022-10-22T19:33:55.296Z,83.57
2022-10-22T19:36:25.345Z,83.33
2022-10-22T19:38:53.219Z,83.84
2022-10-22T19:41:22.584Z,83.59
2022-10-22T19:43:52.588Z,83.86
2022-10-22T19:46:21.462Z,83.37
2022-10-22T19:48:52.255Z,83.75
2022-10-22T19:51:24.603Z,84.13
2022-10-22T19:53:58.608Z,83.91
2022-10-22T19:56:26.481Z,83.59
2022-10-22T19:58:54.399Z,83.16
2022-10-22T20:01:22.629Z,83.83
2022-10-22T20:03:51.870Z,83.84
2022-10-22T20:06:21.742Z,83.37
2022-10-22T20:08:52.355Z,83.01
2022-10-22T20:11:25.995Z,83.21
2022-10-22T20:13:54.823Z,82.73
2022-10-22T20:16:25.120Z,82.56
2022-10-22T20:18:54.280Z,83.54
2022-10-22T20:21:22.731Z,83.07
2022-10-22T20:23:54.082Z,82.94
2022-10-22T20:26:23.801Z,82.91
2022-10-22T20:28:51.851Z,83.12
2022-10-22T20:31:21.279Z,83.12
2022-10-22T20:33:50.354Z,83.38
2022-10-22T20:36:21.244Z,82.68
2022-10-22T20:38:49.302Z,82.47
2022-10-22T20:41:18.994Z,83.57
2022-10-22T20:43:47.992Z,82.76
2022-10-22T20:46:18.604Z,82.44
2022-10-22T20:48:46.745Z,82.15
2022-10-22T20:51:14.925Z,83.03
2022-10-22T20:53:44.354Z,83.58
2022-10-22T20:56:13.015Z,83.64
2022-10-22T20:58:46.354Z,83.77
2022-10-22T21:01:20.449Z,83.78
2022-10-22T21:03:49.182Z,83.61
2022-10-22T21:06:17.216Z,83.71
2022-10-22T21:08:46.467Z,83.33
2022-10-22T21:11:14.268Z,84.05
2022-10-22T21:13:42.124Z,83.68
2022-10-22T21:16:11.148Z,84.76
2022-10-22T21:18:39.467Z,84.49
2022-10-22T21:21:08.315Z,84.18
2022-10-22T21:23:36.978Z,84.37
2022-10-22T21:26:07.306Z,84.03
2022-10-22T21:28:37.042Z,84.76
2022-10-22T21:31:06.201Z,84.87
2022-10-22T21:33:36.598Z,85.70
2022-10-22T21:36:05.178Z,85.53
2022-10-22T21:38:33.360Z,86.79
2022-10-22T21:41:06.637Z,86.59
2022-10-22T21:43:34.473Z,86.68
2022-10-22T21:46:08.192Z,86.61
2022-10-22T21:48:37.003Z,86.46
2022-10-22T21:51:09.014Z,85.77
2022-10-22T21:53:37.100Z,85.86
2022-10-22T21:56:07.476Z,85.95
2022-10-22T21:58:36.207Z,85.49
2022-10-22T22:01:04.857Z,85.09
2022-10-22T22:03:32.720Z,85.77
2022-10-22T22:06:01.506Z,85.24
2022-10-22T22:08:29.899Z,85.52
2022-10-22T22:11:02.598Z,86.45
2022-10-22T22:13:32.023Z,86.71
2022-10-22T22:16:03.282Z,86.07
2022-10-22T22:18:31.754Z,86.18
2022-10-22T22:21:01.076Z,85.93
2022-10-22T22:23:28.883Z,85.98
2022-10-22T22:25:59.708Z,85.87
2022-10-22T22:28:27.728Z,85.18
2022-10-22T22:30:57.067Z,85.39
2022-10-22T22:33:25.118Z,85.62
2022-10-22T22:35:52.940Z,85.21
2022-10-22T22:38:20.717Z,85.34
2022-10-22T22:40:48.517Z,85.74
2022-10-22T22:43:16.360Z,85.23
2022-10-22T22:45:44.113Z,85.14
2022-10-22T22:48:13.284Z,85.63
2022-10-22T22:50:41.023Z,85.45
2022-10-22T22:53:08.856Z,85.57
2022-10-22T22:55:36.626Z,85.96
2022-10-22T22:58:04.426Z,85.83
2022-10-22T23:00:32.301Z,85.47
2022-10-22T23:03:00.141Z,84.24
2022-10-22T23:05:29.612Z,85.02
2022-10-22T23:07:57.620Z,85.15
2022-10-22T23:10:25.401Z,85.75
2022-10-22T23:12:53.583Z,86.33
2022-10-22T23:15:21.355Z,86.05
2022-10-22T23:17:49.145Z,86.30
2022-10-22T23:20:17.121Z,86.58
2022-10-22T23:22:46.289Z,87.40
2022-10-22T23:25:14.234Z,86.46
2022-10-22T23:27:42.209Z,86.31
2022-10-22T23:30:11.173Z,86.68
2022-10-22T23:32:39.043Z,87.13
2022-10-22T23:35:07.246Z,86.71
2022-10-22T23:37:35.079Z,87.75
2022-10-22T23:40:04.896Z,88.31
2022-10-22T23:42:32.791Z,87.89
2022-10-22T23:45:00.672Z,87.51
2022-10-22T23:47:28.501Z,88.02
2022-10-22T23:49:56.343Z,87.29
2022-10-22T23:52:24.233Z,87.35
2022-10-22T23:54:52.074Z,86.27
2022-10-22T23:57:21.269Z,85.82
2022-10-22T23:59:49.010Z,85.92
